Boone County Airport Harrison US
ICAO: KHRO
IATA: HRO
Category: Medium
Scheduled Services: Yes

Elevation: 1365 ft
TransAlt. 18000 ft.

Airport Communications:
ASOS:121.125
MEMPHIS CNTR:126.85
JONESBORO RDO:122.45
CTAF/UNICOM:123

KHRO Zoom In..

Runways:

(A) RW 18 length 6161 ft width 150 ft
---- / hdg 182

(B) RW 36 length 6161 ft width 150 ft
ILS 111.70 / hdg 2

Location; KHRO
Day. 19 / Time. 20.53 Zulu
* Altimeter: 30.34
* Temperature: 13° c. 55.4°f.
* Wind from: VRB° Speed 03 kn.
Dewpoint: -02° c.
Visibility: 10 Statute Miles.
Clouds: Clear (automated report).

KHRO 192053Z AUTO VRB03KT 10SM CLR 13/M02 A3034 RMK AO2 SLP275 T01331017 58014


Wind From VRB°
Speed 03 kn.

  YouTube Music Video
 
jpsmedia.com for Web Design  worldairports.se 2018   terms of use